YBCGYBUD

Guest
Details From YBCG - Gold Coast International
To YBUD - Bundaberg
Flight Number -
Tags generated
Created
Modified
Stats Distance 223 nm / 414 km
Max Altitude 26,900 ft / 8,199 m
Waypoints 4
Social Downloads 0
Likes 0
Share VATSIM

Download

Looking for another format? Having issues loading an existing format? Contact us
Advertisement - Login to hide

Notes

Basic altitude profile: - Ascent Rate: 2500ft/min - Ascent Speed: 250kts - Cruise Altitude: 35000ft - Cruise Speed: 420kts - Descent Rate: 1500ft/min - Descent Speed: 250kts Options: - Use NATs: yes - Use PACOTS: yes - Use low airways: yes - Use high airways: yes

Route

YBCG CORAL Q26 LOAFA YBUD

ID Type Via Altitude Latitude Longitude Leg Dist Tot Dist Heading (true) Name
O YBCG APT - 0 ft / 0 m -28.16604˚ 153.50616˚ - 0 nm - Gold Coast International
CORAL FIX - 26,900 ft / 8,199 m -26.54778˚ 153.31944˚ 97 nm 97 nm 354° / 354° -
LOAFA FIX Q26 (AWY-LO) 18,000 ft / 5,486 m -25.03472˚ 152.11083˚ 111 nm 209 nm 324° / 325° -
O YBUD APT - 0 ft / 0 m -24.90342˚ 152.32022˚ 13 nm 223 nm 55° / 55° Bundaberg

Altitude Profile

Advertisement - Login to hide

Weather


0- 5 10 15 20 25 30 35+ Temperature / ° C

Clouds and Precipitation
Forecast for 2017-12-19 00:00 UTC. Updated 39 minutes ago

Ground ~20,000 ft ~40,000 ft Winds

YBCG

Details ICAO YBCG (OOL)
Name Gold Coast International
Region Australia
Timezone Australia/Brisbane (UTC+10.0)
Stats Elevation 20 ft / 6 m (AMSL)
Location -28.166035° 153.506155°
Runways 2
Magnetic Variation 11.330° E

METAR

YBCG 181930Z AUTO 31007KT 9999 // SCT024 23/19 Q1012 RF00.0/000.0

Decode

TAF

TAF YBCG 181725Z 1818/1918 34005KT 9999 FEW025 FM182200 01014KT 9999 FEW030 FM191000 35012KT 9999 SCT025 FM191400 34010KT 9999 SCT015 SCT025

Decode

Departure Runways

ID Width Length Bearing (true) Bearing (mag) Surface Threshold Offset Overrun Length
14 148 ft / 45 m 7,687 ft / 2,343 m 150.04° 138.71° Asphalt 0 ft / 0 m 394 ft / 120 m
17 59 ft / 18 m 1,911 ft / 582 m 184.00° 172.67° Asphalt 0 ft / 0 m 0 ft / 0 m
32 148 ft / 45 m 7,687 ft / 2,343 m 330.04° 318.71° Asphalt 0 ft / 0 m 394 ft / 120 m
35 59 ft / 18 m 1,911 ft / 582 m 4.00° 352.67° Asphalt 0 ft / 0 m 0 ft / 0 m

YBUD

Details ICAO YBUD (BDB)
Name Bundaberg
Region Australia
Timezone Australia/Brisbane (UTC+10.0)
Stats Elevation 106 ft / 32 m (AMSL)
Location -24.903419° 152.320218°
Runways 2
Magnetic Variation 10.077° E

METAR

YBUD 181900Z AUTO 18004KT 9999 // NCD 19/17 Q1012

Decode

TAF

Not found

Destination Runways

ID Width Length Bearing (true) Bearing (mag) Surface Threshold Offset Overrun Length
07 95 ft / 29 m 3,704 ft / 1,129 m 68.50° 58.42° Grass 0 ft / 0 m 0 ft / 0 m
14 98 ft / 30 m 5,042 ft / 1,537 m 147.90° 137.82° Asphalt 331 ft / 101 m 30 ft / 9 m
25 95 ft / 29 m 3,704 ft / 1,129 m 248.50° 238.42° Grass 0 ft / 0 m 0 ft / 0 m
32 98 ft / 30 m 5,042 ft / 1,537 m 327.90° 317.82° Asphalt 0 ft / 0 m 39 ft / 12 m

Popular Alternatives